Terminal Aerodrome Forecast
Issued by NWS Lake Charles, LA

Home | Current Version | Previous Version | Text Only | Print | Product List | Glossary On
Versions: 1 2 3 4 5 6 7 8 9 10 11 12 13 14 15
000
FTUS44 KLCH 312321
TAFLCH
TAF
KLCH 312321Z 0100/0124 16006KT P6SM VCSH SCT035 BKN150
     FM010100 VRB03KT P6SM FEW050 BKN200
     FM011000 VRB03KT P6SM VCSH SCT025 BKN200
      TEMPO 0110/0114 5SM BR
     FM011500 18006KT P6SM VCSH SCT030 BKN250 PROB30 0115/0121 4SM
      SHRA SCT020 BKN035=

USA.gov is the U.S. government's official web portal to all federal, state and local government web resources and services.